Time;durP1;ratioP1;P1;durP2;ratioP2;P2;SDS_P1;SDS_P2;PMS_P1;PMS_P2;Temp;Humidity;BMP_temperature;BMP_pressure;BME280_temperature;BME280_humidity;BME280_pressure;Samples;Min_cycle;Max_cycle;Signal;HPM_P1;HPM_P2
2022/09/01 00:01:51;;;;;;;5.05;2.35;;;19.30;99.90;;;;;;5031130;28;20266;-51
2022/09/01 00:04:21;;;;;;;2.35;2.15;;;19.20;99.90;;;;;;5031701;28;20207;-51
2022/09/01 00:06:48;;;;;;;2.45;2.25;;;19.20;99.90;;;;;;5031812;28;20159;-51
2022/09/01 00:09:18;;;;;;;5.05;2.47;;;19.20;99.90;;;;;;5032129;28;20206;-51
2022/09/01 00:11:47;;;;;;;3.78;2.30;;;19.10;99.90;;;;;;5031936;28;20164;-49
2022/09/01 00:14:13;;;;;;;2.63;2.38;;;19.10;99.90;;;;;;5031941;28;20284;-48
2022/09/01 00:16:39;;;;;;;2.50;1.98;;;19.00;99.90;;;;;;5032099;28;20158;-47
2022/09/01 00:19:06;;;;;;;2.47;2.28;;;18.90;99.90;;;;;;5031954;28;20175;-48
2022/09/01 00:21:40;;;;;;;3.45;2.38;;;18.70;99.90;;;;;;5032177;28;20179;-48
2022/09/01 00:24:07;;;;;;;7.10;2.78;;;18.60;99.90;;;;;;5031728;28;20284;-47
2022/09/01 00:26:32;;;;;;;4.15;2.47;;;18.60;99.90;;;;;;5030563;28;20535;-47
2022/09/01 00:28:58;;;;;;;6.40;2.80;;;18.60;99.90;;;;;;5035948;28;20163;-48
2022/09/01 00:31:24;;;;;;;4.57;2.30;;;18.60;99.90;;;;;;5039110;28;20171;-47
2022/09/01 00:33:50;;;;;;;2.60;2.40;;;18.70;99.90;;;;;;5038894;28;20186;-48
2022/09/01 00:36:17;;;;;;;3.08;2.25;;;18.60;99.90;;;;;;5038300;28;20163;-49
2022/09/01 00:38:44;;;;;;;3.42;2.22;;;18.70;99.90;;;;;;5038355;28;20185;-50
2022/09/01 00:41:10;;;;;;;3.78;2.47;;;18.70;99.90;;;;;;5038321;28;20242;-48
2022/09/01 00:43:40;;;;;;;2.25;2.05;;;18.80;99.90;;;;;;5038411;28;20253;-49
2022/09/01 00:46:08;;;;;;;4.15;2.42;;;18.70;99.90;;;;;;5038288;28;20186;-50
2022/09/01 00:48:35;;;;;;;5.10;2.22;;;18.70;99.90;;;;;;5038253;28;20171;-51
2022/09/01 00:51:02;;;;;;;2.95;2.13;;;18.70;99.90;;;;;;5038359;28;20221;-51
2022/09/01 00:53:28;;;;;;;2.22;1.98;;;18.80;99.90;;;;;;5038249;28;20201;-51
2022/09/01 00:55:54;;;;;;;2.33;2.13;;;18.80;99.90;;;;;;5038111;28;20203;-49
2022/09/01 00:58:20;;;;;;;5.20;2.90;;;18.70;99.90;;;;;;5038585;28;20171;-51
2022/09/01 01:00:48;;;;;;;3.45;2.40;;;18.60;99.90;;;;;;5038147;28;20179;-51
2022/09/01 01:03:14;;;;;;;2.22;2.08;;;18.60;99.90;;;;;;5038226;28;20186;-51
2022/09/01 01:05:46;;;;;;;2.17;1.98;;;18.60;99.90;;;;;;5038047;28;20674;-51
2022/09/01 01:08:12;;;;;;;3.92;2.65;;;18.60;99.90;;;;;;5038332;28;20171;-51
2022/09/01 01:10:40;;;;;;;2.50;2.30;;;18.60;99.90;;;;;;5038019;28;20175;-51
2022/09/01 01:13:15;;;;;;;2.40;2.20;;;18.60;99.90;;;;;;5037915;28;20222;-50
2022/09/01 01:15:42;;;;;;;2.53;2.22;;;18.60;99.90;;;;;;5038035;28;20163;-50
2022/09/01 01:18:11;;;;;;;6.10;2.63;;;18.50;99.90;;;;;;5037930;28;20171;-51
2022/09/01 01:23:37;;;;;;;4.15;2.50;;;18.40;99.90;;;;;;5038513;28;20296;-51
2022/09/01 01:26:08;;;;;;;2.70;2.50;;;18.30;99.90;;;;;;5038125;28;20559;-51
2022/09/01 01:28:37;;;;;;;3.53;2.67;;;18.40;99.90;;;;;;5037847;28;20182;-51
2022/09/01 01:31:10;;;;;;;4.07;2.40;;;18.30;99.90;;;;;;5037901;28;20171;-51
2022/09/01 01:33:48;;;;;;;2.63;2.42;;;18.30;99.90;;;;;;5037814;28;20560;-51
2022/09/01 01:36:18;;;;;;;3.00;2.70;;;18.30;99.90;;;;;;5037891;28;20638;-52
2022/09/01 01:38:46;;;;;;;3.67;2.65;;;18.20;99.90;;;;;;5037732;28;20693;-51
2022/09/01 01:41:15;;;;;;;2.95;2.75;;;18.20;99.90;;;;;;5033777;28;20663;-51
2022/09/01 01:43:41;;;;;;;2.40;2.20;;;18.20;99.90;;;;;;5034462;28;20174;-51
2022/09/01 01:46:08;;;;;;;4.07;2.92;;;18.20;99.90;;;;;;5034663;28;20290;-51
2022/09/01 01:48:40;;;;;;;4.10;2.85;;;18.10;99.90;;;;;;5034559;28;20171;-51
2022/09/01 01:51:06;;;;;;;3.03;2.40;;;18.10;99.90;;;;;;5034515;28;20262;-51
2022/09/01 01:53:33;;;;;;;2.83;2.40;;;17.90;99.90;;;;;;5034239;28;20164;-51
2022/09/01 01:55:59;;;;;;;3.05;2.70;;;17.90;99.90;;;;;;5034156;28;20171;-51
2022/09/01 01:58:27;;;;;;;3.17;2.50;;;17.90;99.90;;;;;;5034332;28;20182;-51
2022/09/01 02:00:54;;;;;;;2.53;2.13;;;18.10;99.90;;;;;;5034915;28;20175;-51
2022/09/01 02:03:23;;;;;;;3.95;2.47;;;18.00;99.90;;;;;;5034798;28;20226;-51
2022/09/01 02:05:51;;;;;;;2.75;2.53;;;18.00;99.90;;;;;;5034473;28;20629;-51
2022/09/01 02:08:19;;;;;;;2.45;2.22;;;18.00;99.90;;;;;;5034150;28;20159;-51
2022/09/01 02:10:47;;;;;;;3.05;2.63;;;17.90;99.90;;;;;;5034225;28;20159;-49
2022/09/01 02:13:16;;;;;;;3.28;2.97;;;17.80;99.90;;;;;;5033909;28;20203;-51
2022/09/01 02:15:49;;;;;;;2.50;2.30;;;17.70;99.90;;;;;;5032762;28;20217;-50
2022/09/01 02:18:19;;;;;;;6.28;2.47;;;17.70;99.90;;;;;;5033989;28;20171;-49
2022/09/01 02:20:48;;;;;;;3.15;2.85;;;17.70;99.90;;;;;;5033911;28;20298;-51
2022/09/01 02:23:16;;;;;;;3.45;2.50;;;17.70;99.90;;;;;;5034092;28;20179;-50
2022/09/01 02:25:44;;;;;;;3.97;2.53;;;17.70;99.90;;;;;;5033942;28;20226;-50
2022/09/01 02:28:15;;;;;;;3.83;2.70;;;17.60;99.90;;;;;;5033735;28;20182;-48
2022/09/01 02:30:48;;;;;;;2.95;2.60;;;17.60;99.90;;;;;;5033798;28;20167;-50
2022/09/01 02:33:17;;;;;;;2.97;2.67;;;17.50;99.90;;;;;;5033694;28;20675;-49
2022/09/01 02:35:45;;;;;;;2.65;2.45;;;17.50;99.90;;;;;;5033956;28;20632;-49
2022/09/01 02:38:12;;;;;;;3.33;2.47;;;17.50;99.90;;;;;;5033592;28;20175;-46
2022/09/01 02:40:44;;;;;;;5.45;2.60;;;17.60;99.90;;;;;;5033534;28;20521;-48
2022/09/01 02:43:10;;;;;;;3.67;2.70;;;17.50;99.90;;;;;;5033302;28;20184;-50
2022/09/01 02:45:37;;;;;;;5.13;2.63;;;17.40;99.90;;;;;;5033640;28;20215;-50
2022/09/01 02:48:08;;;;;;;2.75;2.50;;;17.40;99.90;;;;;;5033427;28;20620;-50
2022/09/01 02:50:35;;;;;;;3.85;2.55;;;17.40;99.90;;;;;;5033355;28;20171;-51
2022/09/01 02:53:00;;;;;;;6.03;2.67;;;17.30;99.90;;;;;;5033246;28;20163;-51
2022/09/01 02:55:26;;;;;;;6.30;2.78;;;17.30;99.90;;;;;;5033336;28;20163;-50
2022/09/01 02:57:55;;;;;;;3.75;2.60;;;17.30;99.90;;;;;;5033592;28;20612;-51
2022/09/01 03:00:27;;;;;;;3.58;2.88;;;17.20;99.90;;;;;;5033803;28;20171;-51
2022/09/01 03:02:55;;;;;;;5.50;2.60;;;17.30;99.90;;;;;;5033241;28;20171;-46
2022/09/01 03:05:25;;;;;;;4.70;2.72;;;17.30;99.90;;;;;;5033518;28;20202;-50
2022/09/01 03:07:58;;;;;;;2.83;2.60;;;17.30;99.90;;;;;;5033415;28;20191;-51
2022/09/01 03:10:29;;;;;;;4.90;2.95;;;17.20;99.90;;;;;;5033198;28;20175;-47
2022/09/01 03:12:55;;;;;;;5.10;2.90;;;17.30;99.90;;;;;;5032763;28;20619;-51
2022/09/01 03:15:22;;;;;;;3.85;2.92;;;17.30;99.90;;;;;;5033255;28;20175;-51
2022/09/01 03:17:47;;;;;;;4.43;2.88;;;17.30;99.90;;;;;;5033047;28;20262;-51
2022/09/01 03:20:15;;;;;;;3.45;3.08;;;17.30;99.90;;;;;;5032779;28;20310;-51
2022/09/01 03:22:42;;;;;;;4.22;2.75;;;17.30;99.90;;;;;;5033080;28;20174;-51
2022/09/01 03:25:08;;;;;;;5.88;3.08;;;17.20;99.90;;;;;;5032603;28;20211;-51
2022/09/01 03:27:33;;;;;;;6.53;2.75;;;17.20;99.90;;;;;;5032748;28;20180;-50
2022/09/01 03:29:59;;;;;;;4.20;2.50;;;17.20;99.90;;;;;;5032667;28;20628;-48
2022/09/01 03:32:25;;;;;;;3.67;2.70;;;17.20;99.90;;;;;;5032629;28;20167;-50
2022/09/01 03:34:50;;;;;;;3.17;2.72;;;17.20;99.90;;;;;;5032881;28;20199;-51
2022/09/01 03:37:17;;;;;;;3.00;2.72;;;17.10;99.90;;;;;;5032731;28;20175;-48
2022/09/01 03:39:43;;;;;;;4.38;2.70;;;17.10;99.90;;;;;;5032416;28;20175;-48
2022/09/01 03:42:18;;;;;;;5.28;2.60;;;17.20;99.90;;;;;;5032441;28;20250;-48
2022/09/01 03:44:43;;;;;;;3.53;2.55;;;17.20;99.90;;;;;;5032336;28;20210;-48
2022/09/01 03:47:09;;;;;;;4.07;2.30;;;17.10;99.90;;;;;;5032356;28;20623;-48
2022/09/01 03:49:38;;;;;;;3.70;2.60;;;17.10;99.90;;;;;;5032609;28;20222;-48
2022/09/01 03:52:07;;;;;;;4.40;2.92;;;17.10;99.90;;;;;;5032331;28;20620;-46
2022/09/01 03:54:32;;;;;;;5.88;3.00;;;17.00;99.90;;;;;;5032295;28;20175;-48
2022/09/01 03:56:58;;;;;;;5.05;2.95;;;17.10;99.90;;;;;;5032099;28;20167;-50
2022/09/01 03:59:24;;;;;;;5.68;3.05;;;17.00;99.90;;;;;;5032151;28;20270;-49
2022/09/01 04:01:50;;;;;;;3.28;2.80;;;17.00;99.90;;;;;;5032674;28;20207;-48
2022/09/01 04:04:16;;;;;;;6.82;2.95;;;17.00;99.90;;;;;;5031470;28;20203;-49
2022/09/01 04:06:43;;;;;;;3.80;2.50;;;17.00;99.90;;;;;;5032073;28;20608;-49
2022/09/01 04:09:09;;;;;;;3.10;2.50;;;17.00;99.90;;;;;;5030713;28;20544;-49
2022/09/01 04:11:38;;;;;;;6.22;2.90;;;16.90;99.90;;;;;;5031989;28;20640;-50
2022/09/01 04:14:04;;;;;;;3.10;2.80;;;16.90;99.90;;;;;;5031890;28;20245;-49
2022/09/01 04:19:19;;;;;;;5.28;3.17;;;16.80;99.90;;;;;;5032090;28;20178;-49
2022/09/01 04:21:46;;;;;;;5.72;3.70;;;16.70;99.90;;;;;;5031874;28;20167;-51
2022/09/01 04:24:14;;;;;;;9.40;2.80;;;16.80;99.90;;;;;;5031682;28;20418;-50
2022/09/01 04:26:40;;;;;;;6.40;2.90;;;16.70;99.90;;;;;;5031976;28;20182;-50
2022/09/01 04:29:09;;;;;;;3.97;2.70;;;16.70;99.90;;;;;;5032050;28;20186;-50
2022/09/01 04:31:37;;;;;;;4.25;2.90;;;16.70;99.90;;;;;;5031802;28;20155;-50
2022/09/01 04:34:11;;;;;;;7.57;2.88;;;16.70;99.90;;;;;;5031715;28;20171;-47
2022/09/01 04:36:42;;;;;;;3.15;2.85;;;16.70;99.90;;;;;;5031730;28;20741;-50
2022/09/01 04:39:11;;;;;;;5.57;3.28;;;16.70;99.90;;;;;;5031703;28;20278;-50
2022/09/01 04:41:40;;;;;;;5.15;3.47;;;16.70;99.90;;;;;;5031950;28;20642;-48
2022/09/01 04:44:07;;;;;;;3.38;2.85;;;16.70;99.90;;;;;;5031653;28;20294;-50
2022/09/01 04:46:35;;;;;;;5.05;2.90;;;16.60;99.90;;;;;;5031675;28;20665;-50
2022/09/01 04:49:06;;;;;;;3.75;3.22;;;16.60;99.90;;;;;;5031865;28;20175;-51
2022/09/01 04:51:34;;;;;;;4.75;2.70;;;16.60;99.90;;;;;;5031773;28;20172;-51
2022/09/01 04:54:01;;;;;;;4.03;3.00;;;16.60;99.90;;;;;;5031818;28;20180;-51
2022/09/01 04:56:29;;;;;;;5.40;3.05;;;16.60;99.90;;;;;;5031431;28;20167;-51
2022/09/01 04:58:55;;;;;;;5.05;3.03;;;16.50;99.90;;;;;;5031813;28;20294;-51
2022/09/01 05:01:24;;;;;;;3.55;3.25;;;16.60;99.90;;;;;;5031815;28;20175;-50
2022/09/01 05:04:00;;;;;;;5.30;2.97;;;16.60;99.90;;;;;;5031737;28;20531;-50
2022/09/01 05:06:27;;;;;;;4.13;2.97;;;16.60;99.90;;;;;;5031622;28;20195;-51
2022/09/01 05:08:55;;;;;;;3.38;3.00;;;16.60;99.90;;;;;;5031480;28;20202;-48
2022/09/01 05:11:22;;;;;;;3.70;3.35;;;16.60;99.90;;;;;;5031733;28;20761;-51
2022/09/01 05:13:49;;;;;;;4.72;3.08;;;16.50;99.90;;;;;;5031869;28;20249;-50
2022/09/01 05:16:20;;;;;;;3.78;3.22;;;16.50;99.90;;;;;;5033797;28;20171;-50
2022/09/01 05:18:48;;;;;;;6.15;3.40;;;16.60;99.90;;;;;;5035307;28;20171;-51
2022/09/01 05:21:16;;;;;;;5.05;3.10;;;16.60;99.90;;;;;;5035067;28;20545;-51
2022/09/01 05:23:44;;;;;;;4.95;3.15;;;16.60;99.90;;;;;;5034898;28;20174;-51
2022/09/01 05:26:19;;;;;;;4.15;3.15;;;16.60;99.90;;;;;;5034930;28;20247;-51
2022/09/01 05:28:46;;;;;;;9.25;3.55;;;16.70;99.90;;;;;;5035119;28;20174;-52
2022/09/01 05:31:12;;;;;;;5.78;3.40;;;16.70;99.90;;;;;;5034866;28;20176;-50
2022/09/01 05:33:44;;;;;;;4.53;3.50;;;16.80;99.90;;;;;;5034810;28;20250;-50
2022/09/01 05:36:13;;;;;;;7.03;3.75;;;16.80;99.90;;;;;;5034714;28;20168;-50
2022/09/01 05:38:41;;;;;;;3.58;3.13;;;16.70;99.90;;;;;;5034549;28;20214;-50
2022/09/01 05:41:10;;;;;;;3.80;3.47;;;16.80;99.90;;;;;;5034885;28;20237;-50
2022/09/01 05:43:35;;;;;;;4.85;4.35;;;16.80;99.90;;;;;;5034555;28;20167;-49
2022/09/01 05:46:07;;;;;;;5.72;3.60;;;16.80;99.90;;;;;;5034480;28;20218;-51
2022/09/01 05:48:34;;;;;;;4.82;3.42;;;16.80;99.90;;;;;;5034465;28;20662;-50
2022/09/01 05:51:05;;;;;;;4.13;3.47;;;16.80;99.90;;;;;;5034737;28;20258;-48
2022/09/01 05:53:32;;;;;;;5.30;3.53;;;16.90;99.90;;;;;;5034658;28;20197;-50
2022/09/01 05:55:59;;;;;;;5.50;4.05;;;16.90;99.90;;;;;;5034450;28;20631;-50
2022/09/01 05:58:26;;;;;;;4.70;3.42;;;16.90;99.90;;;;;;5034299;28;20167;-51
2022/09/01 06:00:54;;;;;;;11.45;3.83;;;17.00;99.90;;;;;;5034557;28;20242;-47
2022/09/01 06:03:21;;;;;;;4.18;3.58;;;17.10;99.90;;;;;;5033309;28;20175;-49
2022/09/01 06:05:51;;;;;;;7.32;3.45;;;17.20;99.90;;;;;;5034136;28;20567;-49
2022/09/01 06:08:18;;;;;;;5.13;3.50;;;17.20;99.90;;;;;;5034713;28;20194;-50
2022/09/01 06:10:45;;;;;;;4.38;3.25;;;17.30;99.90;;;;;;5034164;28;20203;-51
2022/09/01 06:13:14;;;;;;;4.80;3.67;;;17.50;99.90;;;;;;5032580;28;20555;-50
2022/09/01 06:15:40;;;;;;;3.13;2.58;;;17.50;99.90;;;;;;5033996;28;20182;-49
2022/09/01 06:18:10;;;;;;;2.83;2.60;;;17.60;99.90;;;;;;5033845;28;20203;-50
2022/09/01 06:20:41;;;;;;;3.97;2.55;;;17.70;99.90;;;;;;5034230;28;20182;-50
2022/09/01 06:23:07;;;;;;;2.72;2.30;;;17.90;99.90;;;;;;5034141;28;20175;-51
2022/09/01 06:25:36;;;;;;;4.22;2.40;;;17.90;99.90;;;;;;5033513;28;20210;-51
2022/09/01 06:28:03;;;;;;;2.85;2.30;;;18.00;99.90;;;;;;5033702;28;20163;-51
2022/09/01 06:30:29;;;;;;;6.10;2.30;;;18.10;99.90;;;;;;5033806;28;20167;-51
2022/09/01 06:32:55;;;;;;;5.43;2.47;;;18.20;99.90;;;;;;5033757;28;20684;-51
2022/09/01 06:35:28;;;;;;;2.17;1.98;;;18.20;99.90;;;;;;5034336;28;20221;-51
2022/09/01 06:37:55;;;;;;;3.70;2.20;;;18.30;99.90;;;;;;5033939;28;20171;-50
2022/09/01 06:40:24;;;;;;;3.38;2.38;;;18.40;99.90;;;;;;5034189;28;20179;-50
2022/09/01 06:42:51;;;;;;;2.78;1.98;;;18.50;99.90;;;;;;5034144;28;20179;-51
2022/09/01 06:45:20;;;;;;;3.95;2.40;;;18.60;99.90;;;;;;5033723;28;20218;-51
2022/09/01 06:47:46;;;;;;;2.53;2.20;;;18.60;99.90;;;;;;5033436;28;20167;-51
2022/09/01 06:50:15;;;;;;;2.22;2.03;;;18.70;99.90;;;;;;5033407;28;20191;-51
2022/09/01 06:52:44;;;;;;;2.78;2.25;;;18.80;99.90;;;;;;5033411;28;20178;-51
2022/09/01 06:55:12;;;;;;;2.40;2.20;;;18.80;99.90;;;;;;5033338;28;20167;-51
2022/09/01 06:57:39;;;;;;;4.18;2.30;;;18.90;99.90;;;;;;5033205;28;20195;-48
2022/09/01 07:00:16;;;;;;;3.63;2.33;;;19.00;99.90;;;;;;5033195;28;20195;-48
2022/09/01 07:02:47;;;;;;;4.55;2.40;;;19.20;99.90;;;;;;5033413;28;20171;-48
2022/09/01 07:05:17;;;;;;;3.90;2.33;;;19.20;99.90;;;;;;5033055;28;20299;-48
2022/09/01 07:07:51;;;;;;;3.25;2.40;;;19.40;99.90;;;;;;5033335;28;20175;-49
2022/09/01 07:10:23;;;;;;;4.07;2.42;;;19.50;99.90;;;;;;5032694;28;20506;-47
2022/09/01 07:12:50;;;;;;;2.75;2.00;;;19.60;99.90;;;;;;5033193;28;20199;-49
2022/09/01 07:15:16;;;;;;;4.40;2.08;;;19.80;99.90;;;;;;5033165;28;20215;-48
2022/09/01 07:17:51;;;;;;;3.28;2.22;;;19.70;99.90;;;;;;5032875;28;20536;-47
2022/09/01 07:20:22;;;;;;;3.72;2.00;;;19.80;99.90;;;;;;5033340;28;20201;-47
2022/09/01 07:22:48;;;;;;;2.83;1.98;;;19.80;99.90;;;;;;5033082;28;20163;-48
2022/09/01 07:25:16;;;;;;;3.22;1.92;;;19.90;99.90;;;;;;5032641;28;20253;-47
2022/09/01 07:27:47;;;;;;;2.83;1.92;;;20.00;99.90;;;;;;5032540;28;20527;-47
2022/09/01 07:30:14;;;;;;;4.20;2.00;;;20.00;99.90;;;;;;5032640;28;20167;-48
2022/09/01 07:32:42;;;;;;;3.75;2.35;;;20.00;99.90;;;;;;5032526;28;20164;-48
2022/09/01 07:35:08;;;;;;;3.55;1.40;;;20.20;99.90;;;;;;5032486;28;20163;-48
2022/09/01 07:37:37;;;;;;;4.10;2.22;;;20.30;99.90;;;;;;5031897;28;20174;-48
2022/09/01 07:40:05;;;;;;;5.00;2.13;;;20.30;99.90;;;;;;5032407;28;20178;-49
2022/09/01 07:42:31;;;;;;;4.85;2.50;;;20.60;99.90;;;;;;5032495;28;20619;-48
2022/09/01 07:44:57;;;;;;;4.28;2.00;;;20.50;99.90;;;;;;5032260;28;20203;-48
2022/09/01 07:47:22;;;;;;;12.05;2.22;;;20.70;99.90;;;;;;5032633;28;20175;-47
2022/09/01 07:49:48;;;;;;;11.38;2.40;;;20.70;99.90;;;;;;5032707;28;20212;-48
2022/09/01 07:52:14;;;;;;;2.90;2.10;;;20.80;99.90;;;;;;5032287;28;20571;-47
2022/09/01 07:54:39;;;;;;;4.90;2.33;;;20.80;99.90;;;;;;5032165;28;20176;-47
2022/09/01 07:57:05;;;;;;;4.15;2.40;;;21.00;99.90;;;;;;5032216;28;20160;-48
2022/09/01 07:59:32;;;;;;;7.18;2.78;;;21.20;99.90;;;;;;5032083;28;20587;-47
2022/09/01 08:01:57;;;;;;;5.28;3.03;;;21.20;99.90;;;;;;5032291;28;20178;-48
2022/09/01 08:04:23;;;;;;;2.53;2.30;;;21.20;99.90;;;;;;5031919;28;20277;-47
2022/09/01 08:06:49;;;;;;;2.85;2.00;;;21.40;99.90;;;;;;5032327;28;20167;-47
2022/09/01 08:09:14;;;;;;;3.67;2.28;;;21.50;99.90;;;;;;5031967;28;20163;-47
2022/09/01 08:11:41;;;;;;;3.55;2.08;;;21.60;99.90;;;;;;5031885;28;20171;-47
2022/09/01 08:14:07;;;;;;;2.35;2.05;;;21.60;99.90;;;;;;5031811;28;20699;-49
2022/09/01 08:16:32;;;;;;;4.60;2.13;;;21.70;99.90;;;;;;5031903;28;20159;-48
2022/09/01 08:18:59;;;;;;;2.88;2.00;;;21.70;99.90;;;;;;5031977;28;20202;-47
2022/09/01 08:21:25;;;;;;;2.90;2.13;;;21.70;99.90;;;;;;5031897;28;20164;-47
2022/09/01 08:23:53;;;;;;;6.03;2.00;;;21.70;99.90;;;;;;5032032;28;20258;-47
2022/09/01 08:26:22;;;;;;;3.35;1.55;;;21.80;99.90;;;;;;5032119;28;20178;-48
2022/09/01 08:28:48;;;;;;;1.80;1.70;;;22.00;99.90;;;;;;5032096;28;20572;-47
2022/09/01 08:31:16;;;;;;;4.22;1.98;;;22.10;99.90;;;;;;5031887;28;20186;-47
2022/09/01 08:33:44;;;;;;;1.88;1.70;;;22.30;99.90;;;;;;5031695;28;20171;-47
2022/09/01 08:36:11;;;;;;;3.05;1.80;;;22.40;99.90;;;;;;5031648;28;20163;-46
2022/09/01 08:38:38;;;;;;;5.00;1.90;;;22.40;99.90;;;;;;5031659;28;20198;-46
2022/09/01 08:41:14;;;;;;;3.92;2.05;;;22.40;99.90;;;;;;5031639;28;20190;-46
2022/09/01 08:43:57;;;;;;;2.30;1.80;;;22.40;99.90;;;;;;5031632;28;20611;-46
2022/09/01 08:46:30;;;;;;;6.50;1.83;;;22.70;99.90;;;;;;5031557;28;20211;-46
2022/09/01 08:49:02;;;;;;;1.95;1.80;;;22.70;99.90;;;;;;5031890;28;20297;-46
2022/09/01 08:51:47;;;;;;;2.60;1.88;;;22.70;99.90;;;;;;5035789;28;20167;-46
2022/09/01 08:54:21;;;;;;;3.08;1.80;;;22.90;99.90;;;;;;5035485;28;20171;-46
2022/09/01 08:56:53;;;;;;;2.33;1.77;;;22.90;99.90;;;;;;5035985;28;20583;-46
2022/09/01 08:59:19;;;;;;;1.52;1.38;;;23.00;99.90;;;;;;5035716;28;20237;-46
2022/09/01 09:02:03;;;;;;;2.05;1.50;;;22.90;99.90;;;;;;5035442;28;20290;-46
2022/09/01 09:05:02;;;;;;;2.03;1.40;;;23.10;99.90;;;;;;5035260;28;20198;-47
2022/09/01 09:07:57;;;;;;;1.90;1.58;;;23.30;99.90;;;;;;5035506;28;20534;-46
2022/09/01 09:10:29;;;;;;;5.15;1.80;;;23.40;99.90;;;;;;5035148;28;20167;-46
2022/09/01 09:13:04;;;;;;;1.80;1.60;;;23.50;99.90;;;;;;5035276;28;20219;-47
2022/09/01 09:15:46;;;;;;;2.63;1.52;;;23.40;99.90;;;;;;5035457;28;20523;-46
2022/09/01 09:18:39;;;;;;;11.20;2.70;;;23.50;99.90;;;;;;5035208;28;20171;-48
2022/09/01 09:21:24;;;;;;;4.22;1.48;;;23.60;99.90;;;;;;5035289;28;20226;-46
2022/09/01 09:24:45;;;;;;;1.35;1.25;;;23.80;99.90;;;;;;5035185;28;20254;-47
2022/09/01 09:27:23;;;;;;;2.63;1.70;;;23.80;99.90;;;;;;5034917;28;20179;-46
2022/09/01 09:29:52;;;;;;;5.20;1.65;;;24.10;99.90;;;;;;5035255;28;20168;-48
2022/09/01 09:32:19;;;;;;;2.58;1.92;;;24.30;99.90;;;;;;5035054;28;20229;-47
2022/09/01 09:34:45;;;;;;;2.45;1.60;;;24.20;99.90;;;;;;5035067;28;20171;-47
2022/09/01 09:37:24;;;;;;;1.83;1.40;;;24.40;99.90;;;;;;5034765;28;20190;-47
2022/09/01 09:40:03;;;;;;;2.40;1.42;;;24.50;99.90;;;;;;5034979;28;20166;-47
2022/09/01 09:42:29;;;;;;;2.00;1.40;;;24.30;99.90;;;;;;5034937;28;20175;-46
2022/09/01 09:44:55;;;;;;;2.88;1.40;;;24.50;99.90;;;;;;5034517;28;20203;-46
2022/09/01 09:47:34;;;;;;;1.40;1.30;;;24.60;99.90;;;;;;5034803;28;20182;-46
2022/09/01 09:50:11;;;;;;;1.50;1.17;;;24.70;99.90;;;;;;5034533;28;20163;-47
2022/09/01 09:52:36;;;;;;;1.20;1.10;;;24.50;99.00;;;;;;5034519;28;20171;-48
2022/09/01 09:55:22;;;;;;;1.42;1.33;;;24.60;99.30;;;;;;5034431;28;20524;-48
2022/09/01 09:57:50;;;;;;;1.67;1.45;;;24.80;96.20;;;;;;5034948;28;20178;-48
2022/09/01 10:00:26;;;;;;;4.50;1.20;;;24.70;95.70;;;;;;5034360;28;20163;-47
2022/09/01 10:02:54;;;;;;;1.02;1.00;;;24.90;97.40;;;;;;5033839;28;20524;-48
2022/09/01 10:05:39;;;;;;;1.77;1.13;;;24.90;96.80;;;;;;5034304;28;20273;-46
2022/09/01 10:08:08;;;;;;;3.13;1.30;;;24.80;96.10;;;;;;5034153;28;20156;-48
2022/09/01 10:10:49;;;;;;;2.15;0.98;;;24.80;94.50;;;;;;5034219;28;20529;-48
2022/09/01 10:13:19;;;;;;;2.30;1.30;;;24.50;94.00;;;;;;5032926;28;20584;-49
2022/09/01 10:15:51;;;;;;;1.52;1.10;;;24.20;93.60;;;;;;5034097;28;20178;-49
2022/09/01 10:18:22;;;;;;;2.63;1.23;;;24.30;95.20;;;;;;5034509;28;20193;-49
2022/09/01 10:21:02;;;;;;;1.25;1.13;;;25.00;95.60;;;;;;5034251;28;20171;-49
2022/09/01 10:23:33;;;;;;;1.35;1.10;;;25.00;93.90;;;;;;5033989;28;20261;-49
2022/09/01 10:26:22;;;;;;;1.80;1.23;;;25.30;93.30;;;;;;5033820;28;20205;-49
2022/09/01 10:28:58;;;;;;;1.50;1.40;;;25.50;92.80;;;;;;5034149;28;20167;-49
2022/09/01 10:31:25;;;;;;;3.35;1.40;;;25.90;92.60;;;;;;5034073;28;20216;-49
2022/09/01 10:33:51;;;;;;;2.35;1.50;;;25.90;94.20;;;;;;5033753;28;20184;-49
2022/09/01 10:36:18;;;;;;;2.70;1.52;;;26.00;93.80;;;;;;5033960;28;20182;-48
2022/09/01 10:38:44;;;;;;;1.45;1.35;;;26.00;92.80;;;;;;5033653;28;20167;-48
2022/09/01 10:41:49;;;;;;;1.90;1.40;;;26.00;92.50;;;;;;5033748;28;20221;-47
2022/09/01 10:44:25;;;;;;;1.88;1.38;;;25.80;91.40;;;;;;5033494;28;20189;-49
2022/09/01 10:46:51;;;;;;;1.52;1.20;;;26.10;91.80;;;;;;5033746;28;20174;-47
2022/09/01 10:49:21;;;;;;;2.53;1.40;;;26.50;92.10;;;;;;5034093;28;20194;-49
2022/09/01 10:51:46;;;;;;;2.17;1.58;;;26.20;90.30;;;;;;5033646;28;20167;-48
2022/09/01 10:54:40;;;;;;;2.13;1.30;;;26.30;91.70;;;;;;5033000;28;20263;-48
2022/09/01 10:57:41;;;;;;;3.28;1.50;;;26.30;90.20;;;;;;5033217;28;20677;-48
2022/09/01 11:00:22;;;;;;;2.20;1.60;;;26.30;91.00;;;;;;5033108;28;20163;-47
2022/09/01 11:03:12;;;;;;;4.95;1.55;;;26.20;91.30;;;;;;5033520;28;20174;-47
2022/09/01 11:05:53;;;;;;;1.45;1.35;;;25.90;91.00;;;;;;5033116;28;20654;-47
2022/09/01 11:08:44;;;;;;;1.17;1.08;;;26.00;89.50;;;;;;5033426;28;20254;-47
2022/09/01 11:11:35;;;;;;;1.65;1.50;;;25.40;89.90;;;;;;5030412;28;20190;-49
2022/09/01 11:14:03;;;;;;;2.17;1.38;;;25.00;91.10;;;;;;5031639;28;20218;-49
2022/09/01 11:16:39;;;;;;;2.25;1.52;;;25.00;90.90;;;;;;5033176;28;20195;-49
2022/09/01 11:19:30;;;;;;;2.85;1.42;;;25.60;90.90;;;;;;5032999;28;20180;-49
2022/09/01 11:22:27;;;;;;;1.50;1.30;;;25.80;89.60;;;;;;5032799;28;20163;-48
2022/09/01 11:25:10;;;;;;;4.95;1.70;;;25.90;88.90;;;;;;5031309;28;20678;-48
2022/09/01 11:27:48;;;;;;;1.58;1.38;;;26.20;90.10;;;;;;5032701;28;20208;-49
2022/09/01 11:30:22;;;;;;;2.58;1.70;;;26.10;88.60;;;;;;5032974;28;20304;-46
2022/09/01 11:32:56;;;;;;;3.67;1.45;;;26.30;87.00;;;;;;5032972;28;20174;-46
2022/09/01 11:35:25;;;;;;;1.58;1.48;;;26.20;86.50;;;;;;5032795;28;20174;-46
2022/09/01 11:37:56;;;;;;;3.00;1.52;;;26.40;88.30;;;;;;5032476;28;20178;-47
2022/09/01 11:40:28;;;;;;;3.42;1.50;;;26.40;87.00;;;;;;5032451;28;20163;-46
2022/09/01 11:42:56;;;;;;;2.90;1.58;;;26.40;86.80;;;;;;5032619;28;20305;-48
2022/09/01 11:45:29;;;;;;;4.13;1.83;;;26.80;88.00;;;;;;5032281;28;20259;-46
2022/09/01 11:47:59;;;;;;;1.63;1.52;;;26.90;88.50;;;;;;5032506;28;20167;-47
2022/09/01 11:50:31;;;;;;;1.85;1.70;;;27.00;86.90;;;;;;5032243;28;20210;-46
2022/09/01 11:53:02;;;;;;;2.45;1.38;;;27.10;86.30;;;;;;5032433;28;20174;-46
2022/09/01 11:55:32;;;;;;;3.00;1.30;;;27.10;85.80;;;;;;5032395;28;20171;-46
2022/09/01 11:57:58;;;;;;;1.77;1.67;;;27.10;86.10;;;;;;5032121;28;20250;-46
2022/09/01 12:00:38;;;;;;;3.72;1.70;;;26.90;83.40;;;;;;5032367;28;20666;-49
2022/09/01 12:03:27;;;;;;;2.25;1.60;;;26.90;84.20;;;;;;5032332;28;20171;-47
2022/09/01 12:06:00;;;;;;;1.92;1.50;;;27.20;84.40;;;;;;5031889;28;20216;-47
2022/09/01 12:08:29;;;;;;;3.33;2.00;;;27.60;85.90;;;;;;5031960;28;20171;-46
2022/09/01 12:11:18;;;;;;;1.50;1.40;;;27.50;84.10;;;;;;5031959;28;20546;-47
2022/09/01 12:13:57;;;;;;;2.20;1.55;;;27.20;83.00;;;;;;5030498;28;20567;-48
2022/09/01 12:16:23;;;;;;;5.57;1.55;;;26.90;84.10;;;;;;5031942;28;20165;-48
2022/09/01 12:18:51;;;;;;;3.17;1.50;;;26.90;83.50;;;;;;5032461;28;20589;-48
2022/09/01 12:21:41;;;;;;;2.90;1.58;;;27.10;83.40;;;;;;5032294;28;20169;-47
2022/09/01 12:24:15;;;;;;;1.63;1.50;;;27.20;84.10;;;;;;5031479;28;20175;-48
2022/09/01 12:26:41;;;;;;;1.83;1.73;;;26.90;84.40;;;;;;5031602;28;20653;-48
2022/09/01 12:29:08;;;;;;;2.38;1.58;;;26.40;83.90;;;;;;5031820;28;20174;-47
2022/09/01 12:31:34;;;;;;;1.58;1.40;;;26.50;85.20;;;;;;5031731;28;20630;-47
2022/09/01 12:34:03;;;;;;;2.13;1.67;;;26.90;83.80;;;;;;5031726;28;20171;-48
2022/09/01 12:36:36;;;;;;;2.58;1.80;;;27.10;85.00;;;;;;5031912;28;20178;-48
2022/09/01 12:39:16;;;;;;;2.88;1.67;;;27.20;84.00;;;;;;5031677;28;20159;-48
2022/09/01 12:41:44;;;;;;;1.88;1.77;;;27.10;85.30;;;;;;5031642;28;20174;-48
2022/09/01 12:44:30;;;;;;;2.60;1.90;;;27.30;83.50;;;;;;5031556;28;20202;-48
2022/09/01 12:47:17;;;;;;;1.85;1.70;;;26.70;84.80;;;;;;5031475;28;20497;-48
2022/09/01 12:49:45;;;;;;;5.38;2.00;;;26.60;85.50;;;;;;5020584;28;20265;-49
2022/09/01 12:52:26;;;;;;;4.28;1.60;;;26.30;85.50;;;;;;5031492;28;20566;-48
2022/09/01 12:54:57;;;;;;;1.90;1.80;;;26.40;86.40;;;;;;5031563;28;20171;-48
2022/09/01 12:57:51;;;;;;;3.50;1.75;;;26.80;86.60;;;;;;5031488;28;20541;-47
2022/09/01 13:00:30;;;;;;;2.70;1.80;;;26.70;85.90;;;;;;5029411;28;20211;-49
2022/09/01 13:03:02;;;;;;;1.95;1.55;;;26.30;86.60;;;;;;5031493;28;20163;-50
2022/09/01 13:05:30;;;;;;;1.73;1.63;;;26.30;85.70;;;;;;5031426;28;20199;-49
2022/09/01 13:08:07;;;;;;;2.28;1.88;;;26.10;86.80;;;;;;5031602;28;20213;-49
2022/09/01 13:10:41;;;;;;;3.65;1.92;;;26.10;88.00;;;;;;5031325;28;20220;-49